Time;durP1;ratioP1;P1;durP2;ratioP2;P2;SDS_P1;SDS_P2;PMS_P1;PMS_P2;Temp;Humidity;BMP_temperature;BMP_pressure;BME280_temperature;BME280_humidity;BME280_pressure;Samples;Min_cycle;Max_cycle;Signal;HPM_P1;HPM_P2
2022/04/16 00:01:00;;;;;;;11.90;8.07;;;10.80;99.90;;;;;;5059227;28;20233;-53
2022/04/16 00:03:27;;;;;;;10.60;8.30;;;10.70;99.90;;;;;;5059056;28;20234;-54
2022/04/16 00:05:56;;;;;;;9.60;8.33;;;10.70;99.90;;;;;;5061401;28;20214;-53
2022/04/16 00:08:24;;;;;;;10.53;8.20;;;10.50;99.90;;;;;;5060971;28;20203;-53
2022/04/16 00:10:53;;;;;;;11.60;8.97;;;10.50;99.90;;;;;;5056474;28;20200;-53
2022/04/16 00:13:21;;;;;;;9.27;7.90;;;10.50;99.90;;;;;;5062433;28;20237;-59
2022/04/16 00:15:49;;;;;;;12.73;8.87;;;10.50;99.90;;;;;;5061717;28;20618;-53
2022/04/16 00:18:17;;;;;;;10.10;8.30;;;10.50;99.90;;;;;;5061455;28;20221;-55
2022/04/16 00:20:44;;;;;;;10.37;8.90;;;10.60;99.90;;;;;;5054943;28;20636;-52
2022/04/16 00:23:12;;;;;;;9.50;8.50;;;10.50;99.90;;;;;;5041388;28;20333;-53
2022/04/16 00:25:41;;;;;;;12.13;9.07;;;10.50;99.90;;;;;;5051577;28;20207;-53
2022/04/16 00:28:08;;;;;;;11.57;8.60;;;10.40;99.90;;;;;;5063573;28;20232;-53
2022/04/16 00:30:40;;;;;;;11.07;8.80;;;10.20;99.90;;;;;;5058918;28;20209;-53
2022/04/16 00:33:08;;;;;;;12.30;8.63;;;10.40;99.90;;;;;;5061226;28;20203;-53
2022/04/16 00:35:35;;;;;;;12.27;9.70;;;10.30;99.90;;;;;;5059688;28;20195;-55
2022/04/16 00:38:02;;;;;;;12.23;9.50;;;10.20;99.90;;;;;;5059841;28;20214;-53
2022/04/16 00:40:29;;;;;;;10.60;9.13;;;10.10;99.90;;;;;;5060258;28;20223;-53
2022/04/16 00:42:57;;;;;;;13.50;10.57;;;10.10;99.90;;;;;;5059694;28;20536;-53
2022/04/16 00:45:25;;;;;;;11.07;9.53;;;10.10;99.90;;;;;;5057801;28;20711;-54
2022/04/16 00:47:53;;;;;;;11.03;9.90;;;10.10;99.90;;;;;;5063425;28;20199;-53
2022/04/16 00:50:21;;;;;;;10.77;9.30;;;10.10;99.90;;;;;;5060215;28;20638;-54
2022/04/16 00:52:49;;;;;;;16.00;10.37;;;10.20;99.90;;;;;;5053092;28;20708;-54
2022/04/16 00:55:17;;;;;;;10.93;9.70;;;10.10;99.90;;;;;;5053238;28;20195;-52
2022/04/16 00:57:44;;;;;;;14.53;10.90;;;10.10;99.90;;;;;;5052913;28;20280;-56
2022/04/16 01:00:13;;;;;;;12.13;10.43;;;10.10;99.90;;;;;;5057770;28;20284;-57
2022/04/16 01:02:41;;;;;;;11.17;9.80;;;10.00;99.90;;;;;;5058440;28;20198;-55
2022/04/16 01:05:12;;;;;;;13.33;10.57;;;10.10;99.90;;;;;;5057460;28;20567;-55
2022/04/16 01:08:02;;;;;;;13.33;11.03;;;10.00;99.90;;;;;;5062894;28;20746;-55
2022/04/16 01:10:31;;;;;;;14.87;10.30;;;9.90;99.90;;;;;;5055010;28;20727;-56
2022/04/16 01:13:00;;;;;;;13.63;11.30;;;9.70;99.90;;;;;;5058364;28;20202;-54
2022/04/16 01:15:29;;;;;;;16.57;11.50;;;9.80;99.90;;;;;;5058961;28;20306;-55
2022/04/16 01:17:58;;;;;;;17.53;10.70;;;9.70;99.90;;;;;;5048702;28;20290;-53
2022/04/16 01:20:25;;;;;;;16.37;10.60;;;9.70;99.90;;;;;;5062352;28;20560;-56
2022/04/16 01:22:56;;;;;;;15.43;11.40;;;9.50;99.90;;;;;;5059207;28;20289;-54
2022/04/16 01:25:26;;;;;;;16.73;10.53;;;9.60;99.90;;;;;;5059450;28;20206;-54
2022/04/16 01:27:54;;;;;;;12.93;10.40;;;9.60;99.90;;;;;;5062113;28;20381;-54
2022/04/16 01:30:22;;;;;;;13.97;11.97;;;9.50;99.90;;;;;;5061853;28;20616;-54
2022/04/16 01:32:49;;;;;;;14.10;11.57;;;9.40;99.90;;;;;;5058626;28;20235;-53
2022/04/16 01:35:17;;;;;;;12.03;10.73;;;9.50;99.90;;;;;;5060176;28;20196;-54
2022/04/16 01:37:44;;;;;;;15.10;10.90;;;9.50;99.90;;;;;;5059344;28;20204;-53
2022/04/16 01:40:14;;;;;;;15.43;13.00;;;9.40;99.90;;;;;;5060030;28;20304;-53
2022/04/16 01:42:43;;;;;;;14.13;10.67;;;9.40;99.90;;;;;;5058584;28;20205;-56
2022/04/16 01:45:11;;;;;;;14.47;12.30;;;9.40;99.90;;;;;;5060333;28;20292;-54
2022/04/16 01:47:38;;;;;;;14.00;11.40;;;9.50;99.90;;;;;;5049707;28;20203;-54
2022/04/16 01:50:07;;;;;;;12.10;10.73;;;9.40;99.90;;;;;;5060018;28;20201;-54
2022/04/16 01:52:38;;;;;;;13.57;11.47;;;9.40;99.90;;;;;;5060162;28;20219;-54
2022/04/16 01:55:07;;;;;;;14.80;11.40;;;9.30;99.90;;;;;;5057004;28;20608;-54
2022/04/16 01:57:34;;;;;;;16.50;11.93;;;9.30;99.90;;;;;;5057994;28;20207;-55
2022/04/16 02:00:03;;;;;;;14.33;11.23;;;9.30;99.90;;;;;;5062498;28;20218;-54
2022/04/16 02:02:30;;;;;;;13.30;11.17;;;9.30;99.90;;;;;;5058880;28;20207;-54
2022/04/16 02:04:57;;;;;;;15.00;11.07;;;9.40;99.90;;;;;;5046808;28;20193;-52
2022/04/16 02:07:24;;;;;;;17.50;12.00;;;9.30;99.90;;;;;;5054041;28;20278;-54
2022/04/16 02:09:50;;;;;;;21.20;12.53;;;9.20;99.90;;;;;;5061182;28;20225;-56
2022/04/16 02:12:17;;;;;;;13.20;10.43;;;9.20;99.90;;;;;;5062884;28;20295;-55
2022/04/16 02:14:44;;;;;;;15.17;11.77;;;9.30;99.90;;;;;;5062329;28;20209;-53
2022/04/16 02:17:11;;;;;;;13.30;11.93;;;9.20;99.90;;;;;;5062637;28;20259;-53
2022/04/16 02:19:38;;;;;;;12.43;11.13;;;9.20;99.90;;;;;;5056815;28;20299;-53
2022/04/16 02:22:05;;;;;;;13.97;11.60;;;9.30;99.90;;;;;;5062978;28;20232;-56
2022/04/16 02:24:32;;;;;;;14.37;11.83;;;9.20;99.90;;;;;;5061589;28;20332;-54
2022/04/16 02:26:59;;;;;;;18.23;12.13;;;9.00;99.90;;;;;;5055539;28;20662;-54
2022/04/16 02:29:26;;;;;;;15.23;12.50;;;9.10;99.90;;;;;;5063980;28;20602;-54
2022/04/16 02:31:53;;;;;;;14.13;11.87;;;9.20;99.90;;;;;;5062568;28;20205;-56
2022/04/16 02:34:20;;;;;;;17.77;12.60;;;9.00;99.90;;;;;;5060481;28;20199;-54
2022/04/16 02:36:48;;;;;;;18.80;12.17;;;9.00;99.90;;;;;;5056695;28;20206;-54
2022/04/16 02:39:15;;;;;;;15.23;11.40;;;9.10;99.90;;;;;;5065425;28;20780;-53
2022/04/16 02:41:42;;;;;;;17.33;12.13;;;9.10;99.90;;;;;;5064350;28;20601;-54
2022/04/16 02:47:05;;;;;;;17.20;13.07;;;9.10;99.90;;;;;;5055196;28;20197;-54
2022/04/16 02:47:05;;;;;;;15.73;13.03;;;9.00;99.90;;;;;;5062940;28;20293;-54
2022/04/16 02:49:34;;;;;;;16.30;11.50;;;9.10;99.90;;;;;;5058404;28;21995;-54
2022/04/16 02:52:01;;;;;;;14.57;11.43;;;9.10;99.90;;;;;;5056686;28;20203;-54
2022/04/16 02:54:28;;;;;;;17.40;12.07;;;8.90;99.90;;;;;;5054378;28;20680;-53
2022/04/16 02:56:55;;;;;;;17.07;12.40;;;8.80;99.90;;;;;;5060874;28;20671;-54
2022/04/16 02:59:23;;;;;;;16.47;12.23;;;8.60;99.90;;;;;;5060158;28;20207;-61
2022/04/16 03:01:50;;;;;;;17.13;12.47;;;8.80;99.90;;;;;;5062099;28;20206;-54
2022/04/16 03:04:17;;;;;;;15.87;11.80;;;8.90;99.90;;;;;;5058605;28;20296;-54
2022/04/16 03:06:44;;;;;;;14.83;11.23;;;8.90;99.90;;;;;;5055827;28;20233;-54
2022/04/16 03:09:11;;;;;;;14.70;11.53;;;8.80;99.90;;;;;;5063015;28;20199;-54
2022/04/16 03:11:38;;;;;;;17.10;12.80;;;8.80;99.90;;;;;;5063449;28;20210;-56
2022/04/16 03:17:31;;;;;;;14.07;11.03;;;8.80;99.90;;;;;;5060571;28;20242;-55
2022/04/16 03:19:37;;;;;;;14.70;11.67;;;8.60;99.90;;;;;;5059432;28;20232;-54
2022/04/16 03:22:04;;;;;;;16.23;11.90;;;8.60;99.90;;;;;;5061035;28;20300;-54
2022/04/16 03:24:31;;;;;;;16.47;11.70;;;8.40;99.90;;;;;;5063033;28;20657;-55
2022/04/16 03:26:57;;;;;;;17.00;12.60;;;8.40;99.90;;;;;;5050972;28;20655;-54
2022/04/16 03:29:24;;;;;;;15.50;11.47;;;8.50;99.90;;;;;;5057938;28;20466;-56
2022/04/16 03:31:51;;;;;;;15.00;11.73;;;8.30;99.90;;;;;;5046145;28;20246;-54
2022/04/16 03:34:18;;;;;;;17.27;12.90;;;8.40;99.90;;;;;;5052038;28;20647;-54
2022/04/16 03:36:45;;;;;;;16.00;12.23;;;8.40;99.90;;;;;;5060848;28;20675;-53
2022/04/16 03:39:11;;;;;;;16.97;11.93;;;8.40;99.90;;;;;;5055302;28;20219;-53
2022/04/16 03:41:38;;;;;;;18.40;12.43;;;8.40;99.90;;;;;;5063219;28;20215;-54
2022/04/16 03:44:06;;;;;;;16.80;12.37;;;8.20;99.90;;;;;;5062822;28;20221;-54
2022/04/16 03:46:33;;;;;;;22.40;13.10;;;8.30;99.90;;;;;;5060948;28;20545;-54
2022/04/16 03:49:00;;;;;;;19.07;12.73;;;8.30;99.90;;;;;;5058047;28;20208;-52
2022/04/16 03:51:26;;;;;;;17.40;12.73;;;8.30;99.90;;;;;;5062435;28;20564;-54
2022/04/16 03:53:54;;;;;;;17.53;12.67;;;8.30;99.90;;;;;;5062665;28;20270;-55
2022/04/16 04:01:52;;;;;;;15.80;12.67;;;8.20;99.90;;;;;;5041850;28;20625;-53
2022/04/16 04:04:19;;;;;;;17.90;12.50;;;8.30;99.90;;;;;;5058300;28;20573;-54
2022/04/16 04:06:46;;;;;;;18.13;13.20;;;8.30;99.90;;;;;;5058364;28;20279;-53
2022/04/16 04:09:12;;;;;;;15.33;11.70;;;8.30;99.90;;;;;;5059122;28;20207;-54
2022/04/16 04:11:39;;;;;;;20.33;13.23;;;8.20;99.90;;;;;;5060287;28;20294;-53
2022/04/16 04:14:06;;;;;;;16.80;13.00;;;8.30;99.90;;;;;;5062634;28;20691;-54
2022/04/16 04:16:33;;;;;;;16.60;12.70;;;8.20;99.90;;;;;;5063813;28;20240;-56
2022/04/16 04:19:00;;;;;;;18.97;13.13;;;8.30;99.90;;;;;;5059177;28;20214;-54
2022/04/16 04:21:26;;;;;;;16.93;12.47;;;8.30;99.90;;;;;;5059198;28;20312;-54
2022/04/16 04:23:53;;;;;;;18.07;13.07;;;8.30;99.90;;;;;;5058737;28;20307;-54
2022/04/16 04:26:20;;;;;;;17.67;13.50;;;8.30;99.90;;;;;;5063014;28;20663;-54
2022/04/16 04:28:47;;;;;;;19.67;14.07;;;8.20;99.90;;;;;;5061918;28;20318;-54
2022/04/16 04:31:13;;;;;;;17.73;13.50;;;8.30;99.90;;;;;;5057844;28;20231;-54
2022/04/16 04:33:40;;;;;;;17.63;13.70;;;8.40;99.90;;;;;;5061761;28;20197;-54
2022/04/16 04:36:07;;;;;;;20.23;13.90;;;8.30;99.90;;;;;;5061618;28;20225;-54
2022/04/16 04:38:34;;;;;;;17.37;13.93;;;8.30;99.90;;;;;;5061269;28;20222;-54
2022/04/16 04:41:01;;;;;;;19.57;13.87;;;8.40;99.90;;;;;;5062860;28;20250;-54
2022/04/16 04:43:28;;;;;;;20.63;13.37;;;8.40;99.90;;;;;;5060971;28;20690;-56
2022/04/16 04:45:55;;;;;;;20.83;14.50;;;8.40;99.90;;;;;;5058903;28;20200;-56
2022/04/16 04:48:21;;;;;;;17.90;13.80;;;8.30;99.90;;;;;;5058220;28;20195;-53
2022/04/16 04:50:48;;;;;;;16.83;13.90;;;8.40;99.90;;;;;;5053121;28;20270;-54
2022/04/16 04:53:15;;;;;;;18.50;13.10;;;8.30;99.90;;;;;;5060307;28;20288;-54
2022/04/16 04:55:42;;;;;;;22.03;13.50;;;8.30;99.90;;;;;;5060593;28;20201;-54
2022/04/16 04:58:09;;;;;;;17.30;13.07;;;8.30;99.90;;;;;;5060295;28;20255;-54
2022/04/16 05:00:36;;;;;;;20.23;14.17;;;8.20;99.90;;;;;;5057332;28;20240;-54
2022/04/16 05:03:02;;;;;;;22.30;14.63;;;8.20;99.90;;;;;;5054758;28;20675;-54
2022/04/16 05:05:29;;;;;;;20.23;13.67;;;8.10;99.90;;;;;;5056734;28;20230;-54
2022/04/16 05:07:56;;;;;;;18.77;15.37;;;8.10;99.90;;;;;;5060876;28;20316;-54
2022/04/16 05:10:23;;;;;;;19.80;13.87;;;8.10;99.90;;;;;;5060192;28;20562;-55
2022/04/16 05:12:50;;;;;;;19.97;15.00;;;8.20;99.90;;;;;;5061269;28;20675;-54
2022/04/16 05:15:17;;;;;;;19.53;14.70;;;8.20;99.90;;;;;;5056997;28;20197;-54
2022/04/16 05:17:44;;;;;;;19.63;14.93;;;8.20;99.90;;;;;;5058252;28;20319;-54
2022/04/16 05:20:11;;;;;;;21.67;15.93;;;8.30;99.90;;;;;;5060706;28;20738;-54
2022/04/16 05:22:38;;;;;;;20.03;15.03;;;8.30;99.90;;;;;;5056722;28;20322;-56
2022/04/16 05:25:06;;;;;;;21.87;14.50;;;8.30;99.90;;;;;;5060561;28;20202;-54
2022/04/16 05:27:34;;;;;;;22.70;15.40;;;8.30;99.90;;;;;;5063863;28;20306;-54
2022/04/16 05:30:13;;;;;;;22.00;16.37;;;8.30;99.90;;;;;;5063635;28;20199;-56
2022/04/16 05:32:42;;;;;;;21.67;14.73;;;8.30;99.90;;;;;;5057350;28;20226;-55
2022/04/16 05:35:10;;;;;;;24.00;17.30;;;8.20;99.90;;;;;;5064344;28;20299;-55
2022/04/16 05:37:37;;;;;;;19.60;14.87;;;8.20;99.90;;;;;;5057289;28;20303;-52
2022/04/16 05:40:04;;;;;;;23.10;16.50;;;8.30;99.90;;;;;;5054233;28;20234;-53
2022/04/16 05:42:31;;;;;;;21.33;15.70;;;8.40;99.90;;;;;;5066006;28;20225;-55
2022/04/16 05:45:00;;;;;;;24.60;16.97;;;8.40;99.90;;;;;;5057362;28;20365;-54
2022/04/16 05:47:27;;;;;;;21.93;16.37;;;8.40;99.90;;;;;;5069805;28;20261;-54
2022/04/16 05:49:54;;;;;;;25.40;17.33;;;8.40;99.90;;;;;;5067357;28;20256;-54
2022/04/16 05:52:22;;;;;;;22.07;15.40;;;8.40;99.90;;;;;;5061150;28;20225;-54
2022/04/16 05:54:51;;;;;;;25.63;15.97;;;8.50;99.90;;;;;;5066830;28;20210;-54
2022/04/16 05:57:19;;;;;;;23.27;17.77;;;8.60;99.90;;;;;;5072106;28;20660;-54
2022/04/16 05:59:49;;;;;;;22.40;16.40;;;8.60;99.90;;;;;;5056480;28;20217;-54
2022/04/16 06:02:16;;;;;;;22.73;15.23;;;8.60;99.90;;;;;;5057005;28;20199;-54
2022/04/16 06:04:42;;;;;;;26.97;17.63;;;8.70;99.90;;;;;;5060441;28;20224;-56
2022/04/16 06:07:09;;;;;;;26.83;17.10;;;8.70;99.90;;;;;;5068953;28;20196;-54
2022/04/16 06:09:36;;;;;;;22.87;16.33;;;8.80;99.90;;;;;;5069264;28;20287;-56
2022/04/16 06:12:05;;;;;;;21.93;17.50;;;8.80;99.90;;;;;;5060500;28;20249;-54
2022/04/16 06:14:32;;;;;;;26.17;18.07;;;8.90;99.90;;;;;;5063483;28;20607;-55
2022/04/16 06:16:59;;;;;;;25.50;17.87;;;9.00;99.90;;;;;;5066303;28;20631;-58
2022/04/16 06:19:26;;;;;;;23.90;17.53;;;9.10;99.90;;;;;;5060870;28;20199;-54
2022/04/16 06:21:53;;;;;;;27.90;18.30;;;9.20;99.90;;;;;;5052765;28;20223;-54
2022/04/16 06:24:20;;;;;;;24.37;17.83;;;9.30;99.90;;;;;;5062988;28;20305;-56
2022/04/16 06:26:47;;;;;;;27.33;18.60;;;9.40;99.90;;;;;;5051384;28;20291;-55
2022/04/16 06:29:14;;;;;;;23.20;16.67;;;9.40;99.90;;;;;;5063474;28;20202;-54
2022/04/16 06:31:42;;;;;;;25.17;17.40;;;9.40;99.90;;;;;;5063736;28;20374;-54
2022/04/16 06:34:10;;;;;;;23.13;17.27;;;9.60;99.90;;;;;;5063699;28;20197;-55
2022/04/16 06:36:38;;;;;;;21.67;16.83;;;9.70;99.90;;;;;;5038197;28;20220;-54
2022/04/16 06:39:05;;;;;;;25.90;18.30;;;9.90;99.90;;;;;;5059930;28;20196;-54
2022/04/16 06:41:32;;;;;;;24.83;18.23;;;10.00;99.90;;;;;;5060780;28;20307;-54
2022/04/16 06:43:59;;;;;;;26.27;18.27;;;10.30;99.90;;;;;;5058279;28;20190;-55
2022/04/16 06:46:26;;;;;;;23.47;16.93;;;10.30;99.90;;;;;;5055912;28;20288;-53
2022/04/16 06:48:53;;;;;;;24.60;17.93;;;10.20;99.90;;;;;;5052692;28;20194;-54
2022/04/16 06:51:19;;;;;;;22.30;17.67;;;10.30;99.90;;;;;;5053084;28;20204;-54
2022/04/16 06:53:46;;;;;;;24.27;17.87;;;10.30;99.90;;;;;;5059365;28;20207;-53
2022/04/16 06:56:13;;;;;;;27.83;18.63;;;10.50;99.90;;;;;;5058702;28;20219;-55
2022/04/16 06:58:40;;;;;;;25.70;17.30;;;10.70;99.90;;;;;;5054922;28;20289;-55
2022/04/16 07:01:07;;;;;;;22.67;16.30;;;11.10;99.90;;;;;;5057034;28;20245;-55
2022/04/16 07:03:34;;;;;;;23.73;17.57;;;11.30;99.90;;;;;;5038141;28;20195;-55
2022/04/16 07:06:00;;;;;;;22.17;17.07;;;11.40;99.90;;;;;;5047800;28;20203;-55
2022/04/16 07:08:28;;;;;;;24.07;17.83;;;11.60;99.90;;;;;;5063489;28;20198;-54
2022/04/16 07:10:55;;;;;;;23.03;17.73;;;11.40;99.90;;;;;;5058096;28;20256;-54
2022/04/16 07:13:21;;;;;;;22.90;17.80;;;11.70;99.90;;;;;;5061624;28;20871;-53
2022/04/16 07:15:48;;;;;;;24.90;17.47;;;12.00;99.90;;;;;;5060571;28;20886;-56
2022/04/16 07:18:15;;;;;;;22.47;17.50;;;12.30;99.90;;;;;;5059342;28;20251;-56
2022/04/16 07:20:45;;;;;;;22.73;16.77;;;12.40;99.90;;;;;;5051078;28;20334;-53
2022/04/16 07:23:11;;;;;;;22.40;16.67;;;12.30;99.90;;;;;;5067809;28;20329;-55
2022/04/16 07:25:38;;;;;;;23.30;16.90;;;12.40;99.90;;;;;;5064735;28;20237;-54
2022/04/16 07:28:05;;;;;;;23.90;17.63;;;12.50;99.90;;;;;;5067283;28;20627;-55
2022/04/16 07:30:32;;;;;;;21.97;16.67;;;12.60;99.90;;;;;;5062913;28;20377;-54
2022/04/16 07:32:59;;;;;;;23.43;17.17;;;12.40;99.90;;;;;;5058194;28;20297;-55
2022/04/16 07:35:27;;;;;;;22.83;17.20;;;12.40;99.90;;;;;;5065021;28;20623;-53
2022/04/16 07:37:57;;;;;;;22.27;16.50;;;12.70;99.90;;;;;;5065472;28;20256;-54
2022/04/16 07:40:27;;;;;;;22.40;15.93;;;13.00;99.90;;;;;;5065153;28;20223;-52
2022/04/16 07:42:54;;;;;;;20.27;15.43;;;13.00;99.90;;;;;;5064035;28;20191;-55
2022/04/16 07:45:23;;;;;;;19.87;15.57;;;12.90;99.90;;;;;;5063083;28;21859;-53
2022/04/16 07:47:50;;;;;;;21.90;15.67;;;12.70;99.90;;;;;;5059349;28;20198;-54
2022/04/16 07:50:17;;;;;;;20.43;15.10;;;12.80;99.90;;;;;;5046169;28;20273;-53
2022/04/16 07:52:45;;;;;;;20.60;14.77;;;12.80;99.90;;;;;;5066095;28;20345;-54
2022/04/16 07:55:13;;;;;;;21.53;14.93;;;12.60;99.90;;;;;;5065065;28;20215;-53
2022/04/16 07:57:40;;;;;;;20.17;14.87;;;12.90;99.90;;;;;;5064876;28;20210;-54
2022/04/16 08:00:09;;;;;;;20.90;15.07;;;12.90;99.90;;;;;;5062972;28;20353;-55
2022/04/16 08:02:36;;;;;;;17.67;14.00;;;13.00;99.90;;;;;;5062014;28;20240;-54
2022/04/16 08:05:03;;;;;;;17.40;13.50;;;13.00;99.90;;;;;;5063456;28;20207;-54
2022/04/16 08:07:32;;;;;;;18.53;13.30;;;13.10;99.90;;;;;;5065498;28;20234;-54
2022/04/16 08:09:59;;;;;;;18.10;13.83;;;13.00;99.90;;;;;;5061641;28;21017;-54
2022/04/16 08:12:26;;;;;;;18.30;13.23;;;13.20;99.90;;;;;;5062178;28;20202;-56
2022/04/16 08:14:53;;;;;;;18.87;13.87;;;13.30;99.90;;;;;;5061629;28;20199;-53
2022/04/16 08:17:20;;;;;;;18.77;14.60;;;13.50;99.90;;;;;;5051030;28;20207;-54
2022/04/16 08:19:47;;;;;;;17.50;13.07;;;13.80;99.90;;;;;;5060541;28;20696;-54
2022/04/16 08:22:23;;;;;;;18.23;13.00;;;13.50;99.90;;;;;;5068518;28;20227;-54
2022/04/16 08:25:43;;;;;;;15.27;12.67;;;13.70;99.90;;;;;;5063569;28;20645;-54
2022/04/16 08:27:42;;;;;;;17.83;12.50;;;13.80;99.90;;;;;;5065037;28;20649;-53
2022/04/16 08:30:10;;;;;;;16.73;13.20;;;13.90;99.90;;;;;;5062059;28;20267;-53
2022/04/16 08:32:38;;;;;;;18.37;13.47;;;14.30;99.90;;;;;;5052455;28;20293;-54
2022/04/16 08:35:05;;;;;;;17.03;13.10;;;14.30;99.90;;;;;;5059888;28;20199;-52
2022/04/16 08:37:32;;;;;;;21.00;13.57;;;14.60;99.90;;;;;;5061774;28;20261;-53
2022/04/16 08:40:00;;;;;;;19.30;13.83;;;14.90;99.90;;;;;;5063248;28;20215;-52
2022/04/16 08:42:27;;;;;;;18.70;14.33;;;14.80;99.90;;;;;;5064387;28;20287;-52
2022/04/16 08:44:54;;;;;;;17.67;13.33;;;14.90;99.90;;;;;;5063128;28;20283;-54
2022/04/16 08:47:21;;;;;;;16.63;13.23;;;15.00;99.90;;;;;;5062978;28;20196;-53
2022/04/16 08:49:48;;;;;;;16.67;13.20;;;15.30;99.90;;;;;;5061741;28;20207;-52
2022/04/16 08:52:18;;;;;;;16.30;12.13;;;15.60;99.90;;;;;;5064592;28;20287;-53
2022/04/16 08:54:44;;;;;;;15.67;13.13;;;15.90;99.90;;;;;;5065427;28;20212;-53
2022/04/16 08:57:11;;;;;;;16.93;12.60;;;15.70;99.90;;;;;;5068755;28;20230;-53
2022/04/16 08:59:38;;;;;;;13.33;11.93;;;15.70;99.90;;;;;;5062612;28;20226;-54
2022/04/16 09:02:05;;;;;;;13.47;10.60;;;15.70;99.90;;;;;;5058712;28;20207;-53
2022/04/16 09:04:32;;;;;;;13.70;10.93;;;16.10;99.90;;;;;;5056960;28;20202;-53
2022/04/16 09:07:01;;;;;;;12.73;10.93;;;16.10;99.90;;;;;;5063600;28;20207;-53
2022/04/16 09:09:28;;;;;;;13.37;11.03;;;15.80;99.90;;;;;;5050284;28;20716;-53
2022/04/16 09:11:56;;;;;;;12.07;10.73;;;15.80;99.90;;;;;;5061079;28;20204;-52
2022/04/16 09:14:36;;;;;;;12.93;10.23;;;16.50;99.90;;;;;;5058308;28;20288;-53
2022/04/16 09:17:23;;;;;;;15.37;10.50;;;16.70;99.90;;;;;;5059256;28;20238;-53
2022/04/16 09:19:54;;;;;;;13.90;9.87;;;16.90;99.90;;;;;;5058980;28;20337;-53
2022/04/16 09:22:35;;;;;;;12.63;10.60;;;16.80;99.90;;;;;;5062658;28;20371;-52
2022/04/16 09:25:04;;;;;;;11.70;9.17;;;16.60;99.90;;;;;;5059776;28;20623;-53
2022/04/16 09:27:52;;;;;;;11.90;10.50;;;17.10;99.90;;;;;;5063371;28;20249;-53
2022/04/16 09:30:23;;;;;;;12.77;10.27;;;16.90;99.90;;;;;;5057350;28;20198;-53
2022/04/16 09:32:50;;;;;;;13.20;10.43;;;16.60;99.90;;;;;;5059153;28;20225;-53
2022/04/16 09:35:26;;;;;;;12.57;10.57;;;16.30;99.90;;;;;;5056387;28;20208;-53
2022/04/16 09:38:12;;;;;;;10.60;8.90;;;16.70;99.90;;;;;;5064073;28;20292;-54
2022/04/16 09:40:40;;;;;;;12.83;9.70;;;16.70;99.90;;;;;;5061880;28;20259;-53
2022/04/16 09:43:08;;;;;;;10.93;8.80;;;17.00;99.90;;;;;;5061199;28;20201;-53
2022/04/16 09:45:39;;;;;;;10.27;9.17;;;16.90;99.90;;;;;;5060660;28;20198;-53
2022/04/16 09:48:11;;;;;;;10.90;8.97;;;17.20;99.90;;;;;;5044483;28;20612;-53
2022/04/16 09:50:40;;;;;;;9.73;7.97;;;17.00;99.90;;;;;;5062985;28;20305;-53
2022/04/16 09:53:07;;;;;;;11.70;8.40;;;17.20;99.90;;;;;;5062922;28;20486;-53
2022/04/16 09:55:35;;;;;;;9.63;8.53;;;17.30;99.90;;;;;;5066996;28;20610;-52
2022/04/16 09:58:04;;;;;;;9.67;7.23;;;17.10;99.90;;;;;;5067881;28;20283;-52
2022/04/16 10:00:38;;;;;;;9.23;7.60;;;17.30;99.90;;;;;;5068564;28;20218;-53
2022/04/16 10:03:27;;;;;;;7.63;6.53;;;17.10;99.90;;;;;;5063514;28;20200;-53
2022/04/16 10:05:57;;;;;;;9.97;7.30;;;17.50;99.90;;;;;;5066049;28;20691;-53
2022/04/16 10:08:25;;;;;;;7.87;6.23;;;17.10;99.90;;;;;;5068417;28;20206;-53
2022/04/16 10:10:54;;;;;;;5.77;5.03;;;17.20;99.90;;;;;;5069197;28;20214;-54
2022/04/16 10:13:22;;;;;;;7.70;6.83;;;17.10;99.90;;;;;;5068825;28;20665;-53
2022/04/16 10:16:18;;;;;;;8.27;6.33;;;16.70;99.90;;;;;;5044065;28;20243;-53
2022/04/16 10:18:45;;;;;;;5.73;5.10;;;16.30;99.90;;;;;;5064589;28;20670;-53
2022/04/16 10:21:16;;;;;;;7.20;5.80;;;16.40;99.90;;;;;;5050543;28;20833;-54
2022/04/16 10:23:44;;;;;;;7.00;5.73;;;16.40;99.90;;;;;;5068101;28;20229;-53
2022/04/16 10:26:13;;;;;;;4.43;3.60;;;16.70;99.90;;;;;;5068806;28;20254;-53
2022/04/16 10:28:57;;;;;;;6.33;4.30;;;17.00;99.90;;;;;;5049363;28;20221;-53
2022/04/16 10:31:27;;;;;;;5.17;3.30;;;16.80;99.90;;;;;;5048831;28;20260;-54
2022/04/16 10:33:59;;;;;;;1.67;1.40;;;16.80;99.90;;;;;;5071926;28;20704;-53
2022/04/16 10:36:29;;;;;;;3.37;2.80;;;17.10;99.90;;;;;;5069315;28;20209;-53
2022/04/16 10:38:56;;;;;;;4.13;3.60;;;17.10;99.90;;;;;;5072366;28;20214;-54
2022/04/16 10:41:26;;;;;;;3.40;3.10;;;17.10;99.90;;;;;;5069643;28;20238;-53
2022/04/16 10:43:57;;;;;;;5.53;4.70;;;17.20;99.90;;;;;;5065999;28;20283;-53
2022/04/16 10:46:24;;;;;;;5.60;4.87;;;17.30;99.90;;;;;;5070655;28;20288;-53
2022/04/16 10:48:54;;;;;;;5.33;4.47;;;16.90;99.90;;;;;;5071166;28;20267;-53
2022/04/16 10:51:22;;;;;;;4.33;3.93;;;16.90;99.90;;;;;;5069699;28;20213;-54
2022/04/16 10:53:49;;;;;;;4.67;3.53;;;17.00;99.90;;;;;;5072382;28;20633;-53
2022/04/16 10:56:20;;;;;;;4.43;4.03;;;17.00;99.90;;;;;;5070956;28;20617;-53
2022/04/16 10:58:59;;;;;;;4.47;3.63;;;17.10;99.90;;;;;;5072245;28;20204;-53
2022/04/16 11:01:27;;;;;;;4.13;3.10;;;17.30;99.90;;;;;;5066344;28;20296;-53
2022/04/16 11:03:56;;;;;;;4.30;3.87;;;17.10;99.90;;;;;;5070639;28;20203;-53
2022/04/16 11:06:35;;;;;;;4.43;3.70;;;17.10;99.90;;;;;;5069836;28;20198;-54
2022/04/16 11:09:02;;;;;;;5.27;4.60;;;16.70;99.90;;;;;;5070345;28;20190;-53
2022/04/16 11:11:29;;;;;;;4.57;4.03;;;16.70;99.90;;;;;;5070313;28;20204;-53
2022/04/16 11:13:59;;;;;;;5.07;4.47;;;16.80;99.90;;;;;;5069790;28;20243;-52
2022/04/16 11:16:26;;;;;;;4.70;4.20;;;17.10;99.90;;;;;;5071098;28;20757;-52
2022/04/16 11:18:52;;;;;;;4.67;3.57;;;17.10;99.90;;;;;;5069217;28;20198;-54
2022/04/16 11:21:25;;;;;;;5.90;4.73;;;17.30;99.90;;;;;;5069541;28;20318;-53
2022/04/16 11:23:53;;;;;;;5.23;4.73;;;18.00;99.90;;;;;;5068031;28;20237;-53
2022/04/16 11:35:12;;;;;;;5.50;4.27;;;17.70;99.90;;;;;;5066377;28;20244;-54
2022/04/16 11:37:40;;;;;;;5.53;4.13;;;18.10;99.90;;;;;;5068454;28;20211;-54
2022/04/16 11:40:08;;;;;;;5.03;4.47;;;18.30;99.90;;;;;;5069691;28;20210;-53
2022/04/16 11:42:35;;;;;;;5.30;4.10;;;18.90;99.90;;;;;;5070262;28;20674;-53
2022/04/16 11:45:05;;;;;;;5.57;4.77;;;18.50;99.90;;;;;;5070437;28;20242;-52
2022/04/16 11:47:36;;;;;;;6.23;4.50;;;18.20;99.90;;;;;;5068405;28;20665;-53
2022/04/16 11:50:06;;;;;;;5.90;4.20;;;18.30;99.90;;;;;;5051374;28;20693;-53
2022/04/16 11:52:34;;;;;;;5.73;4.37;;;18.60;99.90;;;;;;5070604;28;20261;-53
2022/04/16 11:55:13;;;;;;;5.33;4.00;;;18.90;99.90;;;;;;5070791;28;20297;-53
2022/04/16 11:57:45;;;;;;;5.03;4.53;;;19.10;99.90;;;;;;5068786;28;20199;-53
2022/04/16 12:00:13;;;;;;;4.90;4.40;;;18.90;99.90;;;;;;5071032;28;20286;-53
2022/04/16 12:02:47;;;;;;;5.03;4.53;;;19.20;99.90;;;;;;5068694;28;20228;-53
2022/04/16 12:05:24;;;;;;;5.57;4.57;;;19.10;99.90;;;;;;5068775;28;20622;-53
2022/04/16 12:07:52;;;;;;;6.07;4.30;;;19.10;99.90;;;;;;5062970;28;20194;-54
2022/04/16 12:10:20;;;;;;;5.43;4.37;;;19.30;99.90;;;;;;5070446;28;20724;-54
2022/04/16 12:12:49;;;;;;;4.90;4.40;;;19.50;99.90;;;;;;5070804;28;20288;-54
2022/04/16 12:15:22;;;;;;;6.87;4.90;;;19.20;99.90;;;;;;5064003;28;20198;-54
2022/04/16 12:17:57;;;;;;;4.80;4.30;;;19.60;99.90;;;;;;5069262;28;20217;-54
2022/04/16 12:20:24;;;;;;;6.07;4.80;;;19.60;99.90;;;;;;5060938;28;20303;-52
2022/04/16 12:23:00;;;;;;;5.17;4.67;;;19.00;99.90;;;;;;5069841;28;20303;-51
2022/04/16 12:25:29;;;;;;;7.47;4.23;;;19.30;99.90;;;;;;5064044;28;20346;-51
2022/04/16 12:27:58;;;;;;;4.73;4.30;;;19.50;99.90;;;;;;5043364;28;20210;-51
2022/04/16 12:30:27;;;;;;;5.47;4.10;;;20.20;99.90;;;;;;5065612;28;20273;-53
2022/04/16 12:32:59;;;;;;;5.07;4.23;;;20.40;99.90;;;;;;5060655;28;20212;-53
2022/04/16 12:35:27;;;;;;;5.43;4.60;;;19.90;99.90;;;;;;5066346;28;20542;-53
2022/04/16 12:37:54;;;;;;;6.77;4.23;;;20.20;99.90;;;;;;5065283;28;20301;-53
2022/04/16 12:40:22;;;;;;;5.70;4.60;;;20.50;99.90;;;;;;5070034;28;20201;-53
2022/04/16 12:42:59;;;;;;;6.43;4.77;;;20.00;99.90;;;;;;5067896;28;20218;-55
2022/04/16 12:45:27;;;;;;;4.90;3.93;;;20.30;99.90;;;;;;5070014;28;20235;-53
2022/04/16 12:47:54;;;;;;;7.50;5.27;;;20.20;99.90;;;;;;5067849;28;21128;-54
2022/04/16 12:50:21;;;;;;;5.50;4.37;;;20.30;99.90;;;;;;5068032;28;20281;-53
2022/04/16 12:52:48;;;;;;;4.80;4.10;;;20.20;99.90;;;;;;5068331;28;20237;-54
2022/04/16 12:55:16;;;;;;;5.10;4.50;;;20.10;99.90;;;;;;5067147;28;20232;-53
2022/04/16 12:57:44;;;;;;;6.20;4.37;;;19.40;99.90;;;;;;5068766;28;20235;-52
2022/04/16 13:00:13;;;;;;;4.33;3.57;;;19.70;99.90;;;;;;5068320;28;20213;-53